createdAt,value
2018-12-11T00:00:01.082Z,16
2018-12-11T00:01:01.081Z,17
2018-12-11T00:04:01.115Z,18
2018-12-11T00:05:01.081Z,17
2018-12-11T00:06:01.080Z,18
2018-12-11T00:07:01.080Z,19
2018-12-11T00:08:01.084Z,17
2018-12-11T00:10:01.113Z,19
2018-12-11T00:11:01.085Z,18
2018-12-11T00:12:01.090Z,19
2018-12-11T00:13:01.085Z,20
2018-12-11T00:14:01.085Z,18
2018-12-11T00:15:01.117Z,17
2018-12-11T00:17:01.091Z,16
2018-12-11T00:18:01.897Z,15
2018-12-11T00:19:01.096Z,16
2018-12-11T00:20:01.109Z,15
2018-12-11T00:21:06.084Z,16
2018-12-11T00:27:01.177Z,15
2018-12-11T00:29:01.086Z,16
2018-12-11T00:30:01.120Z,18
2018-12-11T00:33:01.216Z,19
2018-12-11T00:34:01.091Z,17
2018-12-11T00:35:01.115Z,16
2018-12-11T00:38:01.088Z,17
2018-12-11T00:39:01.088Z,20
2018-12-11T00:40:01.135Z,19
2018-12-11T00:41:01.092Z,20
2018-12-11T00:42:01.089Z,19
2018-12-11T00:43:01.090Z,18
2018-12-11T00:44:01.089Z,16
2018-12-11T00:45:01.129Z,16
2018-12-11T00:49:01.091Z,15
2018-12-11T00:55:01.075Z,14
2018-12-11T00:56:01.102Z,15
2018-12-11T00:58:01.079Z,16
2018-12-11T00:59:01.082Z,17
2018-12-11T01:00:01.080Z,17
2018-12-11T01:01:01.102Z,16
2018-12-11T01:03:02.063Z,14
2018-12-11T01:04:01.130Z,16
2018-12-11T01:05:01.105Z,17
2018-12-11T01:06:01.074Z,18
2018-12-11T01:07:01.075Z,20
2018-12-11T01:09:01.111Z,17
2018-12-11T01:11:01.232Z,15
2018-12-11T01:12:01.081Z,14
2018-12-11T01:14:01.107Z,15
2018-12-11T01:15:01.079Z,16
2018-12-11T01:16:01.078Z,17
2018-12-11T01:17:01.076Z,16
2018-12-11T01:19:01.103Z,19
2018-12-11T01:22:01.081Z,20
2018-12-11T01:23:01.076Z,19
2018-12-11T01:24:03.572Z,16
2018-12-11T01:25:01.082Z,14
2018-12-11T01:26:01.079Z,15
2018-12-11T01:28:01.078Z,16
2018-12-11T01:29:01.111Z,17
2018-12-11T01:30:01.079Z,20
2018-12-11T01:32:01.085Z,19
2018-12-11T01:33:01.085Z,17
2018-12-11T01:35:01.107Z,15
2018-12-11T01:36:02.107Z,13
2018-12-11T01:38:01.097Z,14
2018-12-11T01:41:01.239Z,15
2018-12-11T01:42:02.161Z,16
2018-12-11T01:45:01.120Z,16
2018-12-11T01:46:01.086Z,17
2018-12-11T01:47:01.086Z,16
2018-12-11T01:50:01.093Z,17
2018-12-11T01:52:01.088Z,16
2018-12-11T01:53:01.129Z,15
2018-12-11T01:56:01.092Z,16
2018-12-11T01:59:01.390Z,17
2018-12-11T02:00:01.842Z,17
2018-12-11T02:01:01.087Z,18
2018-12-11T02:02:01.088Z,17
2018-12-11T02:04:01.121Z,18
2018-12-11T02:05:01.093Z,16
2018-12-11T02:06:01.141Z,15
2018-12-11T02:07:01.088Z,16
2018-12-11T02:08:01.088Z,17
2018-12-11T02:11:01.096Z,18
2018-12-11T02:12:01.090Z,19
2018-12-11T02:14:01.123Z,18
2018-12-11T02:15:01.089Z,19
2018-12-11T02:19:01.074Z,18
2018-12-11T02:21:01.078Z,17
2018-12-11T02:22:01.075Z,15
2018-12-11T02:23:01.079Z,13
2018-12-11T02:25:01.108Z,14
2018-12-11T02:27:01.077Z,15
2018-12-11T02:28:01.080Z,14
2018-12-11T02:29:01.076Z,15
2018-12-11T02:30:01.105Z,17
2018-12-11T02:32:01.178Z,18
2018-12-11T02:33:01.211Z,19
2018-12-11T02:34:01.079Z,20
2018-12-11T02:35:01.103Z,18
2018-12-11T02:37:01.092Z,19
2018-12-11T02:39:01.079Z,16
2018-12-11T02:41:01.172Z,15
2018-12-11T02:42:01.079Z,12
2018-12-11T02:44:01.087Z,13
2018-12-11T02:45:01.078Z,14
2018-12-11T02:47:01.078Z,15
2018-12-11T02:51:01.145Z,16
2018-12-11T02:52:01.083Z,17
2018-12-11T02:53:01.110Z,15
2018-12-11T02:55:01.080Z,16
2018-12-11T02:56:01.081Z,17
2018-12-11T02:57:01.076Z,18
2018-12-11T02:58:02.042Z,19
2018-12-11T03:00:01.085Z,17
2018-12-11T03:01:01.086Z,16
2018-12-11T03:02:01.111Z,15
2018-12-11T03:08:01.113Z,16
2018-12-11T03:09:01.085Z,15
2018-12-11T03:10:01.085Z,16
2018-12-11T03:12:01.177Z,15
2018-12-11T03:13:01.086Z,14
2018-12-11T03:15:01.087Z,14
2018-12-11T03:16:01.088Z,15
2018-12-11T03:17:01.113Z,16
2018-12-11T03:18:01.054Z,19
2018-12-11T03:22:01.244Z,20
2018-12-11T03:23:01.093Z,17
2018-12-11T03:25:01.093Z,16
2018-12-11T03:26:01.123Z,15
2018-12-11T03:27:01.091Z,14
2018-12-11T03:29:01.090Z,13
2018-12-11T03:30:01.089Z,13
2018-12-11T03:32:02.332Z,14
2018-12-11T03:33:01.096Z,15
2018-12-11T03:34:01.161Z,16
2018-12-11T03:35:01.098Z,17
2018-12-11T03:36:01.118Z,16
2018-12-11T03:39:01.096Z,17
2018-12-11T03:41:01.118Z,18
2018-12-11T03:42:01.092Z,17
2018-12-11T03:43:01.093Z,19
2018-12-11T03:44:01.190Z,16
2018-12-11T03:45:01.093Z,17
2018-12-11T03:47:02.940Z,20
2018-12-11T03:48:01.091Z,18
2018-12-11T03:50:01.112Z,17
2018-12-11T03:51:01.121Z,18
2018-12-11T03:52:01.092Z,15
2018-12-11T03:55:01.079Z,17
2018-12-11T03:56:01.102Z,16
2018-12-11T03:57:01.093Z,15
2018-12-11T03:58:06.095Z,16
2018-12-11T03:59:01.077Z,15
2018-12-11T04:00:01.078Z,14
2018-12-11T04:01:01.107Z,16
2018-12-11T04:02:01.958Z,15
2018-12-11T04:03:01.081Z,14
2018-12-11T04:04:01.079Z,15
2018-12-11T04:05:01.079Z,16
2018-12-11T04:06:01.115Z,14
2018-12-11T04:07:01.081Z,15
2018-12-11T04:08:01.084Z,16
2018-12-11T04:10:01.862Z,14
2018-12-11T04:11:01.115Z,16
2018-12-11T04:12:01.084Z,17
2018-12-11T04:13:01.090Z,16
2018-12-11T04:14:01.080Z,17
2018-12-11T04:15:01.083Z,19
2018-12-11T04:16:01.106Z,17
2018-12-11T04:17:01.084Z,16
2018-12-11T04:18:01.087Z,17
2018-12-11T04:19:01.095Z,16
2018-12-11T04:20:01.106Z,14
2018-12-11T04:21:01.084Z,16
2018-12-11T04:25:01.108Z,17
2018-12-11T04:26:01.088Z,15
2018-12-11T04:27:01.082Z,14
2018-12-11T04:28:01.081Z,16
2018-12-11T04:29:01.081Z,15
2018-12-11T04:30:01.113Z,15
2018-12-11T04:31:01.095Z,16
2018-12-11T04:32:01.092Z,17
2018-12-11T04:33:01.081Z,14
2018-12-11T04:35:01.087Z,15
2018-12-11T04:36:01.256Z,14
2018-12-11T04:38:01.056Z,15
2018-12-11T04:39:01.086Z,16
2018-12-11T04:40:01.084Z,15
2018-12-11T04:41:01.110Z,18
2018-12-11T04:43:01.086Z,17
2018-12-11T04:45:01.089Z,19
2018-12-11T04:46:01.117Z,16
2018-12-11T04:48:01.092Z,17
2018-12-11T04:49:01.109Z,16
2018-12-11T04:50:01.088Z,15
2018-12-11T04:52:01.150Z,14
2018-12-11T04:55:01.088Z,15
2018-12-11T04:56:01.114Z,14
2018-12-11T04:57:01.088Z,17
2018-12-11T04:58:01.092Z,18
2018-12-11T04:59:01.099Z,19
2018-12-11T05:00:01.058Z,21
2018-12-11T05:02:01.115Z,19
2018-12-11T05:03:01.090Z,18
2018-12-11T05:05:01.092Z,14
2018-12-11T05:06:01.127Z,16
2018-12-11T05:07:01.093Z,15
2018-12-11T05:08:01.095Z,16
2018-12-11T05:10:01.093Z,17
2018-12-11T05:11:01.117Z,16
2018-12-11T05:12:01.090Z,15
2018-12-11T05:13:01.090Z,16
2018-12-11T05:14:01.091Z,15
2018-12-11T05:15:01.098Z,15
2018-12-11T05:18:01.104Z,16
2018-12-11T05:19:01.078Z,17
2018-12-11T05:20:01.074Z,16
2018-12-11T05:21:01.107Z,15
2018-12-11T05:22:06.086Z,17
2018-12-11T05:23:01.048Z,18
2018-12-11T05:24:01.076Z,19
2018-12-11T05:26:01.105Z,21
2018-12-11T05:27:01.080Z,19
2018-12-11T05:28:01.044Z,18
2018-12-11T05:29:01.076Z,17
2018-12-11T05:30:01.079Z,17
2018-12-11T05:31:01.106Z,16
2018-12-11T05:32:02.367Z,15
2018-12-11T05:34:01.858Z,16
2018-12-11T05:37:01.088Z,18
2018-12-11T05:39:01.080Z,17
2018-12-11T05:40:01.082Z,19
2018-12-11T05:41:01.104Z,17
2018-12-11T05:44:01.087Z,18
2018-12-11T05:45:01.108Z,15
2018-12-11T05:46:01.081Z,18
2018-12-11T05:47:01.084Z,17
2018-12-11T05:48:01.080Z,18
2018-12-11T05:51:01.175Z,17
2018-12-11T05:52:02.871Z,16
2018-12-11T05:56:01.112Z,14
2018-12-11T05:57:01.055Z,16
2018-12-11T05:58:01.097Z,15
2018-12-11T05:59:01.114Z,13
2018-12-11T06:00:01.084Z,13
2018-12-11T06:01:01.112Z,12
2018-12-11T06:03:01.084Z,13
2018-12-11T06:04:01.087Z,14
2018-12-11T06:05:01.331Z,15
2018-12-11T06:06:01.117Z,16
2018-12-11T06:07:01.085Z,17
2018-12-11T06:08:01.084Z,18
2018-12-11T06:09:01.085Z,17
2018-12-11T06:11:01.176Z,20
2018-12-11T06:12:01.086Z,17
2018-12-11T06:13:01.215Z,18
2018-12-11T06:14:01.303Z,19
2018-12-11T06:15:01.088Z,19
2018-12-11T06:16:01.115Z,18
2018-12-11T06:17:01.086Z,20
2018-12-11T06:18:01.872Z,19
2018-12-11T06:19:01.086Z,18
2018-12-11T06:20:01.092Z,16
2018-12-11T06:21:01.134Z,15
2018-12-11T06:22:01.087Z,14
2018-12-11T06:24:01.142Z,13
2018-12-11T06:28:01.091Z,14
2018-12-11T06:29:01.089Z,16
2018-12-11T06:30:01.172Z,17
2018-12-11T06:35:01.851Z,16
2018-12-11T06:38:01.082Z,18
2018-12-11T06:39:01.076Z,16
2018-12-11T06:40:01.078Z,14
2018-12-11T06:42:01.077Z,13
2018-12-11T06:43:01.075Z,12
2018-12-11T06:44:01.076Z,13
2018-12-11T06:45:01.077Z,14
2018-12-11T06:46:01.077Z,16
2018-12-11T06:49:01.078Z,19
2018-12-11T06:50:01.046Z,18
2018-12-11T06:53:01.243Z,17
2018-12-11T06:54:01.080Z,15
2018-12-11T06:55:01.078Z,16
2018-12-11T06:56:01.079Z,14
2018-12-11T06:57:01.048Z,16
2018-12-11T06:58:01.083Z,17
2018-12-11T07:00:01.087Z,16
2018-12-11T07:01:01.079Z,18
2018-12-11T07:02:01.082Z,17
2018-12-11T07:03:06.084Z,16
2018-12-11T07:04:02.088Z,14
2018-12-11T07:05:01.080Z,15
2018-12-11T07:06:01.080Z,14
2018-12-11T07:07:01.107Z,15
2018-12-11T07:08:01.090Z,16
2018-12-11T07:09:01.081Z,18
2018-12-11T07:10:01.080Z,19
2018-12-11T07:11:01.081Z,18
2018-12-11T07:12:01.111Z,17
2018-12-11T07:13:01.079Z,16
2018-12-11T07:15:01.084Z,14
2018-12-11T07:16:01.083Z,15
2018-12-11T07:17:01.108Z,16
2018-12-11T07:18:01.049Z,15
2018-12-11T07:20:01.085Z,16
2018-12-11T07:22:01.980Z,15
2018-12-11T07:23:01.080Z,16
2018-12-11T07:24:01.083Z,17
2018-12-11T07:27:01.110Z,19
2018-12-11T07:29:01.082Z,21
2018-12-11T07:30:01.083Z,22
2018-12-11T07:31:01.085Z,23
2018-12-11T07:33:01.082Z,22
2018-12-11T07:34:01.620Z,19
2018-12-11T07:35:01.084Z,18
2018-12-11T07:36:01.086Z,16
2018-12-11T07:38:01.086Z,15
2018-12-11T07:42:01.240Z,16
2018-12-11T07:43:01.088Z,17
2018-12-11T07:44:01.496Z,18
2018-12-11T07:45:01.086Z,18
2018-12-11T07:47:01.121Z,19
2018-12-11T07:48:01.089Z,20
2018-12-11T07:50:01.086Z,21
2018-12-11T07:51:01.095Z,20
2018-12-11T07:52:01.121Z,21
2018-12-11T07:53:01.089Z,19
2018-12-11T07:54:01.089Z,18
2018-12-11T07:56:01.087Z,16
2018-12-11T07:57:01.119Z,14
2018-12-11T07:59:01.093Z,15
2018-12-11T08:00:01.093Z,15
2018-12-11T08:01:01.086Z,18
2018-12-11T08:02:01.121Z,17
2018-12-11T08:04:01.096Z,16
2018-12-11T08:06:01.088Z,14
2018-12-11T08:07:01.120Z,15
2018-12-11T08:08:01.057Z,14
2018-12-11T08:09:01.095Z,15
2018-12-11T08:10:01.086Z,18
2018-12-11T08:11:01.091Z,19
2018-12-11T08:15:01.095Z,17
2018-12-11T08:16:01.092Z,15
2018-12-11T08:17:01.562Z,17
2018-12-11T08:18:01.123Z,20
2018-12-11T08:19:01.090Z,18
2018-12-11T08:21:01.160Z,19
2018-12-11T08:22:01.092Z,16
2018-12-11T08:23:06.094Z,15
2018-12-11T08:24:01.091Z,17
2018-12-11T08:25:01.089Z,18
2018-12-11T08:26:01.093Z,19
2018-12-11T08:27:01.092Z,21
2018-12-11T08:28:06.104Z,20
2018-12-11T08:30:02.239Z,17
2018-12-11T08:31:01.091Z,15
2018-12-11T08:34:01.103Z,13
2018-12-11T08:35:01.093Z,16
2018-12-11T08:36:01.096Z,15
2018-12-11T08:37:01.095Z,14
2018-12-11T08:38:06.102Z,13
2018-12-11T08:39:01.118Z,14
2018-12-11T08:40:01.092Z,13
2018-12-11T08:42:01.079Z,14
2018-12-11T08:43:01.078Z,15
2018-12-11T08:44:01.077Z,14
2018-12-11T08:45:01.079Z,14
2018-12-11T08:46:01.048Z,15
2018-12-11T08:47:01.076Z,14
2018-12-11T08:52:01.146Z,17
2018-12-11T08:53:06.083Z,18
2018-12-11T08:54:01.084Z,19
2018-12-11T08:55:01.047Z,20
2018-12-11T08:57:01.077Z,19
2018-12-11T08:58:01.078Z,17
2018-12-11T08:59:06.410Z,16
2018-12-11T09:00:01.084Z,16
2018-12-11T09:02:01.143Z,14
2018-12-11T09:03:01.081Z,13
2018-12-11T09:04:01.080Z,14
2018-12-11T09:08:01.107Z,15
2018-12-11T09:10:01.079Z,16
2018-12-11T09:11:01.082Z,17
2018-12-11T09:12:01.080Z,19
2018-12-11T09:14:01.082Z,20
2018-12-11T09:15:01.080Z,20
2018-12-11T09:17:01.129Z,18
2018-12-11T09:18:01.108Z,17
2018-12-11T09:19:01.088Z,16
2018-12-11T09:21:01.151Z,15
2018-12-11T09:24:01.153Z,14
2018-12-11T09:26:01.084Z,13
2018-12-11T09:27:01.088Z,15
2018-12-11T09:29:01.086Z,17
2018-12-11T09:30:01.083Z,16
2018-12-11T09:31:01.089Z,17
2018-12-11T09:33:01.117Z,19
2018-12-11T09:35:01.085Z,20
2018-12-11T09:37:01.121Z,19
2018-12-11T09:38:01.088Z,16
2018-12-11T09:39:01.093Z,17
2018-12-11T09:41:01.092Z,18
2018-12-11T09:42:07.254Z,19
2018-12-11T09:43:01.095Z,22
2018-12-11T09:44:06.098Z,21
2018-12-11T09:45:01.091Z,20
2018-12-11T09:46:01.094Z,18
2018-12-11T09:48:01.089Z,16
2018-12-11T09:49:06.100Z,15
2018-12-11T09:50:02.254Z,16
2018-12-11T09:51:01.056Z,17
2018-12-11T09:52:02.115Z,16
2018-12-11T09:53:06.088Z,17
2018-12-11T09:56:01.087Z,16
2018-12-11T09:58:01.096Z,17
2018-12-11T09:59:06.090Z,18
2018-12-11T10:00:01.092Z,19
2018-12-11T10:01:01.088Z,20
2018-12-11T10:02:01.088Z,19
2018-12-11T10:04:06.102Z,17
2018-12-11T10:05:01.090Z,16
2018-12-11T10:06:01.086Z,15
2018-12-11T10:07:01.089Z,17
2018-12-11T10:08:01.092Z,18
2018-12-11T10:09:06.103Z,20
2018-12-11T10:12:01.625Z,19
2018-12-11T10:13:01.090Z,18
2018-12-11T10:14:01.131Z,17
2018-12-11T10:15:01.089Z,16
2018-12-11T10:17:01.092Z,17
2018-12-11T10:18:01.090Z,16
2018-12-11T10:19:01.148Z,15
2018-12-11T10:20:01.092Z,17
2018-12-11T10:23:01.091Z,16
2018-12-11T10:24:01.127Z,17
2018-12-11T10:25:01.093Z,16
2018-12-11T10:28:01.091Z,17
2018-12-11T10:30:01.091Z,16
2018-12-11T10:32:01.156Z,14
2018-12-11T10:33:01.091Z,16
2018-12-11T10:34:01.092Z,15
2018-12-11T10:37:01.096Z,19
2018-12-11T10:38:01.093Z,18
2018-12-11T10:41:01.158Z,20
2018-12-11T10:42:01.097Z,18
2018-12-11T10:43:01.063Z,17
2018-12-11T10:44:01.094Z,16
2018-12-11T10:45:06.102Z,16
2018-12-11T10:46:01.978Z,17
2018-12-11T10:47:01.095Z,16
2018-12-11T10:48:01.106Z,18
2018-12-11T10:50:06.105Z,17
2018-12-11T10:51:01.093Z,15
2018-12-11T10:53:01.904Z,14
2018-12-11T10:54:01.080Z,13
2018-12-11T10:57:01.079Z,15
2018-12-11T10:58:01.080Z,16
2018-12-11T10:59:01.083Z,17
2018-12-11T11:00:01.079Z,17
2018-12-11T11:02:01.148Z,15
2018-12-11T11:03:01.085Z,17
2018-12-11T11:04:01.094Z,18
2018-12-11T11:06:01.083Z,17
2018-12-11T11:07:01.081Z,18
2018-12-11T11:09:01.081Z,17
2018-12-11T11:10:01.081Z,18
2018-12-11T11:11:01.081Z,19
2018-12-11T11:13:01.071Z,18
2018-12-11T11:14:01.084Z,17
2018-12-11T11:15:01.083Z,16
2018-12-11T11:16:01.087Z,17
2018-12-11T11:17:01.090Z,15
2018-12-11T11:18:01.094Z,16
2018-12-11T11:19:01.088Z,17
2018-12-11T11:23:01.217Z,15
2018-12-11T11:25:01.083Z,14
2018-12-11T11:26:01.085Z,15
2018-12-11T11:27:01.084Z,16
2018-12-11T11:28:01.243Z,19
2018-12-11T11:30:01.119Z,20
2018-12-11T11:31:01.088Z,22
2018-12-11T11:32:01.083Z,20
2018-12-11T11:33:01.095Z,19
2018-12-11T11:34:01.087Z,18
2018-12-11T11:35:01.096Z,19
2018-12-11T11:36:06.102Z,18
2018-12-11T11:37:01.084Z,17
2018-12-11T11:38:01.088Z,16
2018-12-11T11:39:01.053Z,19
2018-12-11T11:40:01.086Z,16
2018-12-11T11:41:01.112Z,17
2018-12-11T11:42:01.084Z,18
2018-12-11T11:43:01.090Z,20
2018-12-11T11:44:01.093Z,18
2018-12-11T11:45:01.087Z,19
2018-12-11T11:46:06.089Z,18
2018-12-11T11:48:01.089Z,17
2018-12-11T11:49:01.088Z,18
2018-12-11T11:50:01.088Z,17
2018-12-11T11:53:01.153Z,16
2018-12-11T11:54:01.094Z,15
2018-12-11T11:55:01.095Z,19
2018-12-11T11:58:01.088Z,18
2018-12-11T11:59:01.096Z,19
2018-12-11T12:00:01.109Z,16
2018-12-11T12:01:01.113Z,15
2018-12-11T12:02:01.090Z,16
2018-12-11T12:04:06.302Z,15
2018-12-11T12:07:01.090Z,14
2018-12-11T12:09:01.087Z,15
2018-12-11T12:10:01.112Z,17
2018-12-11T12:11:01.086Z,18
2018-12-11T12:12:01.201Z,19
2018-12-11T12:13:01.086Z,20
2018-12-11T12:14:01.081Z,19
2018-12-11T12:15:01.089Z,18
2018-12-11T12:16:01.089Z,17
2018-12-11T12:17:01.089Z,16
2018-12-11T12:18:01.090Z,14
2018-12-11T12:19:06.094Z,17
2018-12-11T12:21:01.090Z,16
2018-12-11T12:22:01.065Z,15
2018-12-11T12:24:01.128Z,14
2018-12-11T12:25:01.092Z,16
2018-12-11T12:26:01.091Z,17
2018-12-11T12:28:01.091Z,16
2018-12-11T12:30:01.091Z,15
2018-12-11T12:33:01.094Z,16
2018-12-11T12:34:06.108Z,15
2018-12-11T12:35:01.093Z,14
2018-12-11T12:37:01.104Z,13
2018-12-11T12:38:01.079Z,15
2018-12-11T12:40:01.077Z,16
2018-12-11T12:41:01.208Z,18
2018-12-11T12:42:01.079Z,21
2018-12-11T12:45:01.080Z,18
2018-12-11T12:46:02.104Z,19
2018-12-11T12:47:01.144Z,17
2018-12-11T12:49:01.107Z,18
2018-12-11T12:50:01.086Z,19
2018-12-11T12:51:01.079Z,18
2018-12-11T12:58:01.083Z,17
2018-12-11T13:00:01.083Z,18
2018-12-11T13:01:01.087Z,16
2018-12-11T13:02:01.083Z,17
2018-12-11T13:04:01.110Z,18
2018-12-11T13:06:01.184Z,19
2018-12-11T13:07:01.088Z,18
2018-12-11T13:10:01.088Z,19
2018-12-11T13:11:01.090Z,17
2018-12-11T13:14:01.985Z,16
2018-12-11T13:15:06.898Z,16
2018-12-11T13:16:01.061Z,18
2018-12-11T13:18:06.095Z,16
2018-12-11T13:20:01.097Z,15
2018-12-11T13:21:01.089Z,14
2018-12-11T13:22:01.091Z,16
2018-12-11T13:23:06.114Z,18
2018-12-11T13:25:01.094Z,19
2018-12-11T13:27:01.093Z,18
2018-12-11T13:28:06.103Z,19
2018-12-11T13:32:01.206Z,20
2018-12-11T13:33:01.078Z,18
2018-12-11T13:34:01.104Z,16
2018-12-11T13:35:01.075Z,15
2018-12-11T13:36:01.078Z,16
2018-12-11T13:37:01.085Z,15
2018-12-11T13:38:01.086Z,17
2018-12-11T13:39:01.105Z,18
2018-12-11T13:40:01.076Z,20
2018-12-11T13:42:01.141Z,18
2018-12-11T13:45:01.079Z,17
2018-12-11T13:46:02.133Z,16
2018-12-11T13:47:01.078Z,17
2018-12-11T13:48:01.079Z,16
2018-12-11T13:49:01.081Z,17
2018-12-11T13:50:01.081Z,16
2018-12-11T13:52:01.081Z,15
2018-12-11T13:54:01.117Z,14
2018-12-11T13:57:01.085Z,16
2018-12-11T13:59:01.108Z,17
2018-12-11T14:00:01.082Z,17
2018-12-11T14:01:01.086Z,15
2018-12-11T14:03:02.347Z,14
2018-12-11T14:04:06.098Z,15
2018-12-11T14:05:01.084Z,13
2018-12-11T14:06:01.084Z,15
2018-12-11T14:07:01.086Z,14
2018-12-11T14:08:01.980Z,16
2018-12-11T14:09:04.825Z,17
2018-12-11T14:10:01.083Z,19
2018-12-11T14:15:01.146Z,20
2018-12-11T14:16:01.487Z,19
2018-12-11T14:17:01.086Z,21
2018-12-11T14:18:01.081Z,19
2018-12-11T14:19:01.109Z,18
2018-12-11T14:20:02.088Z,15
2018-12-11T14:22:01.084Z,13
2018-12-11T14:24:01.115Z,15
2018-12-11T14:25:01.082Z,16
2018-12-11T14:27:01.091Z,18
2018-12-11T14:29:01.116Z,17
2018-12-11T14:30:01.086Z,17
2018-12-11T14:32:01.164Z,16
2018-12-11T14:33:01.052Z,15
2018-12-11T14:34:06.098Z,16
2018-12-11T14:35:06.095Z,17
2018-12-11T14:36:01.084Z,16
2018-12-11T14:37:05.341Z,17
2018-12-11T14:38:01.084Z,16
2018-12-11T14:39:01.107Z,18
2018-12-11T14:40:06.089Z,17
2018-12-11T14:41:01.085Z,18
2018-12-11T14:43:01.086Z,19
2018-12-11T14:44:06.093Z,16
2018-12-11T14:45:06.236Z,16
2018-12-11T14:46:01.086Z,17
2018-12-11T14:47:01.163Z,16
2018-12-11T14:48:01.088Z,15
2018-12-11T14:49:01.934Z,16
2018-12-11T14:50:06.106Z,17
2018-12-11T14:51:01.091Z,15
2018-12-11T14:54:06.104Z,14
2018-12-11T14:55:06.105Z,15
2018-12-11T14:56:01.090Z,17
2018-12-11T14:57:01.090Z,18
2018-12-11T14:58:01.096Z,19
2018-12-11T14:59:01.120Z,21
2018-12-11T15:00:01.091Z,20
2018-12-11T15:01:01.089Z,19
2018-12-11T15:03:01.090Z,20
2018-12-11T15:07:01.076Z,19
2018-12-11T15:08:01.074Z,18
2018-12-11T15:09:01.041Z,16
2018-12-11T15:10:03.181Z,14
2018-12-11T15:11:01.729Z,15
2018-12-11T15:12:01.072Z,16
2018-12-11T15:13:01.072Z,14
2018-12-11T15:15:01.075Z,15
2018-12-11T15:16:01.040Z,14
2018-12-11T15:18:01.075Z,15
2018-12-11T15:19:01.073Z,16
2018-12-11T15:22:01.138Z,15
2018-12-11T15:23:01.279Z,16
2018-12-11T15:25:01.075Z,14
2018-12-11T15:26:01.077Z,16
2018-12-11T15:30:01.087Z,17
2018-12-11T15:33:01.142Z,16
2018-12-11T15:34:01.077Z,17
2018-12-11T15:39:01.086Z,18
2018-12-11T15:40:01.109Z,19
2018-12-11T15:42:01.208Z,18
2018-12-11T15:43:01.084Z,17
2018-12-11T15:45:06.129Z,17
2018-12-11T15:47:01.094Z,16
2018-12-11T15:48:01.083Z,18
2018-12-11T15:49:01.247Z,17
2018-12-11T15:50:01.083Z,18
2018-12-11T15:52:01.152Z,19
2018-12-11T15:53:01.089Z,18
2018-12-11T15:56:06.105Z,17
2018-12-11T15:57:01.084Z,16
2018-12-11T16:00:01.086Z,14
2018-12-11T16:01:01.111Z,15
2018-12-11T16:03:01.082Z,13
2018-12-11T16:04:01.083Z,15
2018-12-11T16:05:01.088Z,16
2018-12-11T16:07:01.086Z,17
2018-12-11T16:08:01.083Z,18
2018-12-11T16:09:01.086Z,20
2018-12-11T16:10:01.086Z,18
2018-12-11T16:13:01.149Z,17
2018-12-11T16:14:01.086Z,14
2018-12-11T16:15:01.086Z,14
2018-12-11T16:17:01.086Z,15
2018-12-11T16:18:01.087Z,16
2018-12-11T16:20:01.085Z,18
2018-12-11T16:21:01.120Z,17
2018-12-11T16:22:01.087Z,15
2018-12-11T16:23:01.086Z,17
2018-12-11T16:25:01.088Z,16
2018-12-11T16:26:01.122Z,17
2018-12-11T16:27:01.089Z,18
2018-12-11T16:28:01.090Z,16
2018-12-11T16:29:01.090Z,15
2018-12-11T16:30:01.088Z,15
2018-12-11T16:31:01.119Z,16
2018-12-11T16:32:01.056Z,15
2018-12-11T16:34:01.094Z,16
2018-12-11T16:35:01.089Z,17
2018-12-11T16:36:06.099Z,16
2018-12-11T16:37:01.088Z,17
2018-12-11T16:40:04.655Z,15
2018-12-11T16:41:01.087Z,16
2018-12-11T16:42:01.087Z,17
2018-12-11T16:43:01.090Z,19
2018-12-11T16:44:01.804Z,18
2018-12-11T16:45:01.118Z,19
2018-12-11T16:46:01.095Z,18
2018-12-11T16:47:01.088Z,17
2018-12-11T16:48:01.092Z,16
2018-12-11T16:49:06.102Z,17
2018-12-11T16:51:01.114Z,19
2018-12-11T16:52:01.157Z,17
2018-12-11T16:53:01.088Z,19
2018-12-11T16:54:01.089Z,18
2018-12-11T16:57:01.433Z,19
2018-12-11T16:59:01.078Z,18
2018-12-11T17:00:01.078Z,19
2018-12-11T17:01:01.133Z,20
2018-12-11T17:04:01.073Z,19
2018-12-11T17:05:01.074Z,17
2018-12-11T17:08:01.106Z,19
2018-12-11T17:09:01.317Z,18
2018-12-11T17:10:01.141Z,17
2018-12-11T17:13:01.213Z,15
2018-12-11T17:14:01.080Z,14
2018-12-11T17:15:01.084Z,16
2018-12-11T17:16:01.089Z,15
2018-12-11T17:17:01.106Z,16
2018-12-11T17:18:01.080Z,17
2018-12-11T17:19:01.080Z,19
2018-12-11T17:20:01.080Z,18
2018-12-11T17:21:01.722Z,19
2018-12-11T17:22:01.111Z,18
2018-12-11T17:23:01.110Z,17
2018-12-11T17:24:01.083Z,16
2018-12-11T17:25:01.083Z,18
2018-12-11T17:26:01.093Z,17
2018-12-11T17:27:01.081Z,16
2018-12-11T17:28:01.110Z,18
2018-12-11T17:29:01.051Z,16
2018-12-11T17:30:01.086Z,16
2018-12-11T17:33:01.186Z,15
2018-12-11T17:34:01.083Z,16
2018-12-11T17:35:01.538Z,15
2018-12-11T17:36:01.084Z,14
2018-12-11T17:39:01.112Z,15
2018-12-11T17:42:01.086Z,16
2018-12-11T17:44:01.111Z,17
2018-12-11T17:45:01.086Z,16
2018-12-11T17:46:01.085Z,15
2018-12-11T17:50:01.114Z,14
2018-12-11T17:51:01.084Z,15
2018-12-11T17:53:01.116Z,16
2018-12-11T17:55:01.089Z,17
2018-12-11T17:58:01.198Z,16
2018-12-11T18:00:01.093Z,18
2018-12-11T18:02:01.153Z,16
2018-12-11T18:03:01.116Z,17
2018-12-11T18:04:01.059Z,16
2018-12-11T18:05:01.087Z,15
2018-12-11T18:07:01.089Z,17
2018-12-11T18:09:01.583Z,16
2018-12-11T18:12:01.225Z,15
2018-12-11T18:15:01.115Z,15
2018-12-11T18:17:01.101Z,16
2018-12-11T18:18:01.058Z,15
2018-12-11T18:19:01.090Z,16
2018-12-11T18:21:01.183Z,17
2018-12-11T18:22:01.092Z,15
2018-12-11T18:23:01.089Z,16
2018-12-11T18:24:01.089Z,17
2018-12-11T18:27:01.115Z,19
2018-12-11T18:28:01.090Z,17
2018-12-11T18:30:01.084Z,17
2018-12-11T18:31:01.089Z,18
2018-12-11T18:32:01.095Z,16
2018-12-11T18:33:01.102Z,17
2018-12-11T18:34:01.091Z,16
2018-12-11T18:36:01.106Z,17
2018-12-11T18:38:01.078Z,18
2018-12-11T18:41:01.171Z,17
2018-12-11T18:42:01.074Z,16
2018-12-11T18:43:01.174Z,17
2018-12-11T18:44:01.075Z,19
2018-12-11T18:45:03.296Z,18
2018-12-11T18:46:01.106Z,19
2018-12-11T18:49:01.077Z,17
2018-12-11T18:51:01.259Z,16
2018-12-11T18:56:02.111Z,15
2018-12-11T18:57:01.079Z,14
2018-12-11T18:58:01.079Z,13
2018-12-11T19:00:01.081Z,14
2018-12-11T19:01:01.115Z,16
2018-12-11T19:04:01.083Z,18
2018-12-11T19:05:01.079Z,17
2018-12-11T19:07:01.114Z,18
2018-12-11T19:08:01.082Z,17
2018-12-11T19:09:05.653Z,18
2018-12-11T19:11:01.082Z,19
2018-12-11T19:12:01.081Z,18
2018-12-11T19:13:01.081Z,21
2018-12-11T19:14:01.084Z,20
2018-12-11T19:15:04.678Z,20
2018-12-11T19:16:01.084Z,18
2018-12-11T19:18:01.083Z,17
2018-12-11T19:19:01.082Z,16
2018-12-11T19:20:01.083Z,18
2018-12-11T19:22:01.120Z,20
2018-12-11T19:24:01.084Z,18
2018-12-11T19:26:01.087Z,17
2018-12-11T19:27:01.089Z,16
2018-12-11T19:29:01.086Z,18
2018-12-11T19:30:01.086Z,17
2018-12-11T19:31:01.087Z,16
2018-12-11T19:33:01.114Z,15
2018-12-11T19:34:01.089Z,14
2018-12-11T19:35:01.088Z,13
2018-12-11T19:36:01.089Z,16
2018-12-11T19:37:01.090Z,17
2018-12-11T19:38:02.086Z,16
2018-12-11T19:41:01.153Z,15
2018-12-11T19:42:01.094Z,14
2018-12-11T19:43:06.771Z,15
2018-12-11T19:45:02.115Z,15
2018-12-11T19:46:01.195Z,13
2018-12-11T19:47:01.088Z,14
2018-12-11T19:49:01.192Z,15
2018-12-11T19:50:01.089Z,16
2018-12-11T19:51:01.093Z,17
2018-12-11T19:52:01.095Z,16
2018-12-11T19:53:01.090Z,17
2018-12-11T19:54:01.089Z,15
2018-12-11T19:56:02.117Z,14
2018-12-11T19:57:01.091Z,15
2018-12-11T19:58:01.091Z,16
2018-12-11T19:59:01.127Z,17
2018-12-11T20:00:01.094Z,17
2018-12-11T20:01:01.093Z,19
2018-12-11T20:02:01.093Z,18
2018-12-11T20:03:01.089Z,17
2018-12-11T20:05:01.116Z,18
2018-12-11T20:06:01.092Z,17
2018-12-11T20:09:01.155Z,16
2018-12-11T20:10:01.183Z,15
2018-12-11T20:11:01.093Z,16
2018-12-11T20:12:01.093Z,15
2018-12-11T20:14:01.092Z,16
2018-12-11T20:17:01.124Z,15
2018-12-11T20:18:01.078Z,16
2018-12-11T20:19:01.076Z,17
2018-12-11T20:20:01.166Z,15
2018-12-11T20:22:01.145Z,16
2018-12-11T20:23:01.074Z,17
2018-12-11T20:25:01.072Z,19
2018-12-11T20:27:01.075Z,18
2018-12-11T20:28:01.077Z,17
2018-12-11T20:29:01.078Z,15
2018-12-11T20:30:01.103Z,12
2018-12-11T20:31:01.079Z,13
2018-12-11T20:32:01.144Z,12
2018-12-11T20:34:01.075Z,13
2018-12-11T20:35:02.622Z,15
2018-12-11T20:39:01.078Z,14